createdAt,value
2022-09-09T00:01:28.520Z,54.13
2022-09-09T00:04:00.781Z,55.17
2022-09-09T00:06:45.060Z,50.83
2022-09-09T00:09:17.255Z,50.60
2022-09-09T00:11:52.898Z,46.50
2022-09-09T00:14:25.883Z,51.47
2022-09-09T00:17:01.707Z,51.33
2022-09-09T00:19:43.961Z,61.55
2022-09-09T00:22:18.383Z,56.47
2022-09-09T00:24:56.435Z,54.78
2022-09-09T00:27:32.949Z,50.15
2022-09-09T00:30:15.077Z,46.55
2022-09-09T00:32:42.417Z,51.35
2022-09-09T00:35:19.334Z,62.45
2022-09-09T00:37:51.237Z,67.93
2022-09-09T00:40:28.076Z,63.78
2022-09-09T00:43:08.526Z,63.75
2022-09-09T00:46:07.864Z,51.53
2022-09-09T00:48:59.197Z,60.60
2022-09-09T00:52:07.862Z,47.05
2022-09-09T00:54:56.275Z,47.85
2022-09-09T00:57:36.396Z,58.00
2022-09-09T01:00:20.238Z,54.65
2022-09-09T01:03:05.201Z,51.85
2022-09-09T01:05:36.950Z,57.30
2022-09-09T01:08:12.967Z,52.42
2022-09-09T01:10:51.168Z,58.83
2022-09-09T01:13:34.886Z,64.25
2022-09-09T01:16:04.596Z,70.03
2022-09-09T01:18:45.996Z,62.25
2022-09-09T01:21:38.744Z,68.35
2022-09-09T01:24:24.102Z,69.10
2022-09-09T01:26:54.613Z,75.25
2022-09-09T01:29:23.223Z,58.47
2022-09-09T01:31:59.260Z,64.70
2022-09-09T01:34:31.644Z,56.28
2022-09-09T01:37:08.324Z,55.40
2022-09-09T01:39:37.149Z,52.22
2022-09-09T01:42:05.982Z,57.10
2022-09-09T01:44:33.163Z,76.05
2022-09-09T01:47:03.263Z,56.25
2022-09-09T01:49:30.148Z,64.18
2022-09-09T01:51:58.193Z,62.13
2022-09-09T01:54:30.035Z,67.57
2022-09-09T01:57:10.152Z,77.43
2022-09-09T01:59:55.926Z,145.77
2022-09-09T02:02:41.937Z,139.82
2022-09-09T02:05:42.308Z,85.20
2022-09-09T02:08:12.343Z,123.85
2022-09-09T02:10:47.174Z,113.20
2022-09-09T02:13:17.159Z,89.25
2022-09-09T02:16:01.739Z,215.80
2022-09-09T02:18:41.224Z,226.73
2022-09-09T02:21:08.824Z,83.63
2022-09-09T02:23:37.037Z,78.07
2022-09-09T02:26:05.604Z,73.85
2022-09-09T02:28:34.416Z,77.13
2022-09-09T02:31:02.193Z,251.82
2022-09-09T02:33:36.556Z,150.20
2022-09-09T02:36:07.759Z,109.80
2022-09-09T02:38:40.829Z,49.03
2022-09-09T02:41:07.867Z,258.15
2022-09-09T02:43:35.821Z,111.55
2022-09-09T02:46:37.147Z,72.32
2022-09-09T02:49:06.846Z,62.05
2022-09-09T02:51:48.381Z,51.53
2022-09-09T02:54:42.148Z,64.03
2022-09-09T02:57:13.194Z,67.75
2022-09-09T02:59:40.955Z,65.22
2022-09-09T03:02:07.848Z,62.85
2022-09-09T03:04:34.768Z,64.95
2022-09-09T03:07:01.783Z,61.08
2022-09-09T03:09:28.688Z,63.83
2022-09-09T03:11:56.093Z,71.15
2022-09-09T03:14:25.956Z,74.13
2022-09-09T03:16:57.632Z,77.45
2022-09-09T03:19:24.833Z,91.57
2022-09-09T03:21:52.279Z,70.28
2022-09-09T03:24:18.993Z,73.47
2022-09-09T03:26:45.775Z,70.00
2022-09-09T03:29:13.583Z,81.95
2022-09-09T03:31:40.755Z,78.22
2022-09-09T03:34:07.965Z,88.60
2022-09-09T03:36:38.032Z,82.18
2022-09-09T03:39:05.268Z,68.30
2022-09-09T03:41:32.613Z,82.35
2022-09-09T03:43:59.428Z,73.22
2022-09-09T03:46:26.937Z,64.75
2022-09-09T03:48:53.915Z,70.57
2022-09-09T03:51:22.266Z,72.90
2022-09-09T03:53:49.231Z,75.03
2022-09-09T03:56:16.380Z,78.68
2022-09-09T03:58:43.089Z,78.38
2022-09-09T04:01:18.815Z,63.55
2022-09-09T04:03:46.177Z,70.85
2022-09-09T04:06:15.541Z,66.13
2022-09-09T04:08:42.765Z,68.00
2022-09-09T04:11:10.976Z,62.53
2022-09-09T04:13:40.334Z,59.20
2022-09-09T04:16:11.464Z,63.63
2022-09-09T04:18:38.237Z,58.90
2022-09-09T04:21:06.338Z,71.38
2022-09-09T04:23:37.304Z,51.17
2022-09-09T04:26:20.475Z,61.83
2022-09-09T04:28:56.598Z,60.13
2022-09-09T04:31:31.787Z,59.58
2022-09-09T04:34:04.999Z,61.72
2022-09-09T04:36:33.601Z,66.95
2022-09-09T04:39:00.336Z,70.97
2022-09-09T04:41:27.002Z,65.05
2022-09-09T04:43:54.616Z,64.80
2022-09-09T04:46:23.749Z,68.75
2022-09-09T04:48:51.291Z,64.55
2022-09-09T04:51:18.166Z,67.00
2022-09-09T04:53:45.006Z,62.00
2022-09-09T04:56:17.021Z,63.72
2022-09-09T04:58:44.301Z,60.65
2022-09-09T05:01:14.347Z,59.65
2022-09-09T05:03:41.354Z,60.95
2022-09-09T05:06:10.914Z,61.45
2022-09-09T05:08:42.079Z,55.17
2022-09-09T05:11:28.968Z,54.35
2022-09-09T05:13:56.047Z,53.70
2022-09-09T05:16:23.929Z,54.80
2022-09-09T05:18:52.390Z,53.20
2022-09-09T05:21:21.447Z,55.28
2022-09-09T05:23:48.749Z,52.95
2022-09-09T05:26:18.076Z,52.33
2022-09-09T05:28:45.777Z,48.72
2022-09-09T05:31:14.181Z,52.35
2022-09-09T05:33:46.989Z,49.40
2022-09-09T05:36:16.271Z,53.90
2022-09-09T05:38:43.593Z,45.08
2022-09-09T05:41:16.628Z,48.47
2022-09-09T05:43:45.371Z,52.00
2022-09-09T05:46:23.932Z,53.88
2022-09-09T05:48:52.459Z,50.15
2022-09-09T05:51:25.191Z,47.25
2022-09-09T05:53:56.156Z,48.90
2022-09-09T05:56:26.113Z,56.05
2022-09-09T05:58:54.945Z,57.20
2022-09-09T06:01:27.872Z,56.75
2022-09-09T06:03:54.659Z,55.13
2022-09-09T06:06:25.112Z,52.70
2022-09-09T06:08:53.875Z,61.65
2022-09-09T06:11:26.255Z,60.65
2022-09-09T06:13:54.820Z,62.22
2022-09-09T06:16:27.406Z,62.35
2022-09-09T06:18:56.146Z,58.50
2022-09-09T06:21:25.105Z,59.95
2022-09-09T06:23:59.098Z,54.58
2022-09-09T06:26:43.043Z,55.17
2022-09-09T06:29:10.132Z,54.95
2022-09-09T06:31:38.144Z,54.53
2022-09-09T06:34:18.171Z,54.40
2022-09-09T06:36:56.976Z,57.00
2022-09-09T06:39:23.595Z,57.17
2022-09-09T06:41:50.967Z,57.70
2022-09-09T06:44:17.631Z,58.38
2022-09-09T06:46:45.237Z,55.30
2022-09-09T06:49:12.025Z,55.45
2022-09-09T06:51:44.831Z,57.50
2022-09-09T06:54:13.120Z,56.45
2022-09-09T06:56:58.675Z,56.08
2022-09-09T06:59:55.619Z,56.97
2022-09-09T07:02:22.991Z,56.35
2022-09-09T07:04:52.253Z,58.20
2022-09-09T07:07:18.984Z,55.97
2022-09-09T07:09:46.502Z,56.65
2022-09-09T07:12:16.708Z,54.92
2022-09-09T07:14:43.513Z,57.65
2022-09-09T07:27:57.501Z,55.60
2022-09-09T07:30:27.750Z,54.25
2022-09-09T07:32:54.792Z,51.85
2022-09-09T07:35:21.625Z,57.55
2022-09-09T07:37:50.971Z,50.55
2022-09-09T07:40:17.972Z,49.28
2022-09-09T07:42:44.733Z,51.33
2022-09-09T07:45:11.406Z,41.20
2022-09-09T07:47:38.114Z,44.70
2022-09-09T07:50:05.192Z,43.55
2022-09-09T07:52:31.937Z,40.42
2022-09-09T07:54:58.637Z,36.03
2022-09-09T07:57:25.616Z,32.03
2022-09-09T08:00:01.650Z,26.88
2022-09-09T08:02:32.275Z,33.47
2022-09-09T08:05:08.720Z,24.10
2022-09-09T08:07:39.047Z,20.13
2022-09-09T08:10:07.377Z,18.35
2022-09-09T08:12:36.898Z,19.08
2022-09-09T08:15:03.906Z,16.50
2022-09-09T08:17:30.550Z,16.90
2022-09-09T08:19:57.176Z,14.93
2022-09-09T08:22:25.731Z,12.07
2022-09-09T08:24:53.062Z,12.82
2022-09-09T08:27:19.910Z,16.70
2022-09-09T08:29:46.615Z,14.15
2022-09-09T08:32:14.427Z,11.65
2022-09-09T08:34:46.476Z,5.28
2022-09-09T08:37:16.689Z,8.93
2022-09-09T08:39:46.388Z,4.95
2022-09-09T08:42:37.305Z,5.45
2022-09-09T08:45:20.998Z,2.88
2022-09-09T08:48:25.555Z,3.97
2022-09-09T08:51:06.454Z,2.83
2022-09-09T08:53:43.717Z,3.88
2022-09-09T08:56:17.160Z,3.80
2022-09-09T08:58:54.895Z,4.38
2022-09-09T09:02:02.630Z,4.30
2022-09-09T09:04:46.690Z,4.70
2022-09-09T09:07:29.551Z,3.78
2022-09-09T09:10:03.572Z,5.53
2022-09-09T09:12:39.875Z,4.18
2022-09-09T09:15:18.298Z,2.95
2022-09-09T09:17:45.415Z,3.22
2022-09-09T09:20:17.454Z,5.88
2022-09-09T09:22:53.140Z,2.78
2022-09-09T09:25:31.965Z,2.97
2022-09-09T09:28:02.740Z,2.38
2022-09-09T09:30:47.085Z,2.75
2022-09-09T09:33:23.554Z,1.40
2022-09-09T09:35:51.680Z,2.42
2022-09-09T09:41:11.525Z,2.70
2022-09-09T09:43:41.570Z,2.90
2022-09-09T09:46:24.294Z,2.38
2022-09-09T09:49:06.832Z,4.72
2022-09-09T09:51:34.738Z,4.38
2022-09-09T09:54:34.115Z,2.28
2022-09-09T09:57:12.292Z,4.30
2022-09-09T09:59:42.571Z,5.70
2022-09-09T10:02:19.924Z,2.72
2022-09-09T10:04:50.394Z,9.63
2022-09-09T10:07:21.949Z,4.82
2022-09-09T10:09:57.940Z,3.80
2022-09-09T10:12:46.006Z,3.15
2022-09-09T10:15:21.144Z,4.72
2022-09-09T10:17:56.470Z,2.35
2022-09-09T10:20:35.606Z,3.55
2022-09-09T10:23:26.182Z,1.50
2022-09-09T10:26:13.544Z,1.95
2022-09-09T10:29:00.709Z,1.50
2022-09-09T10:31:55.355Z,4.82
2022-09-09T10:34:50.971Z,2.80
2022-09-09T10:37:52.366Z,3.00
2022-09-09T10:40:45.410Z,3.70
2022-09-09T10:43:24.094Z,4.88
2022-09-09T10:46:24.328Z,4.40
2022-09-09T10:49:09.265Z,3.33
2022-09-09T10:51:46.297Z,2.92
2022-09-09T10:54:18.765Z,3.65
2022-09-09T10:56:51.546Z,2.60
2022-09-09T10:59:27.413Z,5.38
2022-09-09T11:02:27.654Z,3.60
2022-09-09T11:05:17.094Z,2.92
2022-09-09T11:07:51.529Z,2.65
2022-09-09T11:10:56.102Z,3.60
2022-09-09T11:13:44.934Z,3.15
2022-09-09T11:16:24.670Z,4.60
2022-09-09T11:18:51.555Z,2.47
2022-09-09T11:21:26.109Z,2.78
2022-09-09T11:23:58.999Z,4.80
2022-09-09T11:26:39.944Z,3.63
2022-09-09T11:29:35.285Z,3.45
2022-09-09T11:32:13.133Z,4.72
2022-09-09T11:35:02.695Z,1.98
2022-09-09T11:37:42.336Z,3.97
2022-09-09T11:40:15.357Z,2.42
2022-09-09T11:42:43.124Z,2.95
2022-09-09T11:45:31.177Z,2.92
2022-09-09T11:48:00.592Z,2.58
2022-09-09T11:50:27.077Z,3.85
2022-09-09T11:53:14.774Z,2.90
2022-09-09T11:55:41.408Z,2.30
2022-09-09T11:58:11.863Z,2.85
2022-09-09T12:00:42.436Z,4.63
2022-09-09T12:03:43.731Z,2.72
2022-09-09T12:06:15.735Z,2.47
2022-09-09T12:08:46.370Z,2.47
2022-09-09T12:11:13.135Z,4.88
2022-09-09T12:13:39.768Z,2.80
2022-09-09T12:16:06.508Z,4.20
2022-09-09T12:18:35.857Z,3.63
2022-09-09T12:21:44.009Z,4.88
2022-09-09T12:24:13.921Z,3.08
2022-09-09T12:26:54.124Z,4.60
2022-09-09T12:29:36.648Z,5.45
2022-09-09T12:32:32.993Z,4.68
2022-09-09T12:35:12.695Z,5.50
2022-09-09T12:37:50.122Z,2.92
2022-09-09T12:40:25.716Z,3.45
2022-09-09T12:42:52.618Z,6.13
2022-09-09T12:45:26.687Z,5.10
2022-09-09T12:47:58.283Z,4.88
2022-09-09T12:50:28.538Z,6.82
2022-09-09T12:53:02.895Z,4.57
2022-09-09T12:55:34.287Z,4.60
2022-09-09T12:58:05.535Z,4.07
2022-09-09T13:00:33.277Z,4.05
2022-09-09T13:03:02.488Z,4.85
2022-09-09T13:05:37.529Z,3.08
2022-09-09T13:08:09.340Z,3.70
2022-09-09T13:10:52.793Z,4.80
2022-09-09T13:13:24.954Z,3.25
2022-09-09T13:15:55.042Z,3.47
2022-09-09T13:18:24.817Z,3.65
2022-09-09T13:20:52.340Z,7.50
2022-09-09T13:23:21.835Z,4.75
2022-09-09T13:26:00.254Z,3.47
2022-09-09T13:28:33.861Z,7.88
2022-09-09T13:31:03.616Z,4.50
2022-09-09T13:33:38.368Z,2.45
2022-09-09T13:36:11.372Z,3.05
2022-09-09T13:38:41.877Z,2.28
2022-09-09T13:41:11.057Z,4.95
2022-09-09T13:43:42.781Z,2.53
2022-09-09T13:46:34.241Z,2.95
2022-09-09T13:49:11.372Z,2.63
2022-09-09T13:51:53.407Z,2.25
2022-09-09T13:54:21.453Z,4.95
2022-09-09T13:56:49.010Z,2.17
2022-09-09T13:59:17.833Z,2.35
2022-09-09T14:01:45.596Z,2.00
2022-09-09T14:04:12.749Z,3.20
2022-09-09T14:06:41.321Z,4.72
2022-09-09T14:09:11.458Z,3.30
2022-09-09T14:11:38.804Z,1.90
2022-09-09T14:14:06.184Z,2.63
2022-09-09T14:16:33.698Z,4.13
2022-09-09T14:19:00.377Z,2.92
2022-09-09T14:21:28.409Z,4.07
2022-09-09T14:23:56.628Z,4.57
2022-09-09T14:26:24.747Z,3.72
2022-09-09T14:28:55.444Z,3.42
2022-09-09T14:31:26.338Z,4.10
2022-09-09T14:33:54.686Z,5.70
2022-09-09T14:36:21.358Z,3.03
2022-09-09T14:38:48.301Z,3.53
2022-09-09T14:41:20.567Z,3.88
2022-09-09T14:43:47.861Z,4.38
2022-09-09T14:46:17.403Z,3.03
2022-09-09T14:48:45.121Z,6.00
2022-09-09T14:51:14.574Z,5.10
2022-09-09T14:53:41.883Z,4.00
2022-09-09T14:56:14.798Z,5.00
2022-09-09T14:58:42.225Z,6.05
2022-09-09T15:01:14.805Z,4.68
2022-09-09T15:03:44.239Z,6.80
2022-09-09T15:06:15.278Z,6.68
2022-09-09T15:08:44.243Z,8.18
2022-09-09T15:11:12.427Z,8.65
2022-09-09T15:13:40.825Z,8.05
2022-09-09T15:16:16.445Z,6.97
2022-09-09T15:18:43.851Z,5.95
2022-09-09T15:21:16.452Z,7.43
2022-09-09T15:23:44.346Z,6.57
2022-09-09T15:26:11.872Z,8.40
2022-09-09T15:28:39.505Z,9.45
2022-09-09T15:31:15.426Z,7.75
2022-09-09T15:33:42.344Z,7.18
2022-09-09T15:36:25.597Z,5.88
2022-09-09T15:38:53.226Z,6.30
2022-09-09T15:41:22.136Z,5.85
2022-09-09T15:43:55.268Z,7.65
2022-09-09T15:46:38.583Z,7.78
2022-09-09T15:49:13.085Z,5.97
2022-09-09T15:51:44.011Z,7.55
2022-09-09T15:54:13.640Z,8.07
2022-09-09T15:56:40.949Z,5.68
2022-09-09T15:59:09.071Z,5.95
2022-09-09T16:01:36.715Z,5.80
2022-09-09T16:04:06.482Z,7.50
2022-09-09T16:06:34.350Z,7.47
2022-09-09T16:09:03.369Z,5.75
2022-09-09T16:14:04.958Z,5.70
2022-09-09T16:16:36.396Z,4.97
2022-09-09T16:19:15.813Z,5.47
2022-09-09T16:21:59.260Z,5.18
2022-09-09T16:24:34.038Z,4.40
2022-09-09T16:27:01.021Z,5.00
2022-09-09T16:29:28.271Z,5.65
2022-09-09T16:31:57.750Z,6.80
2022-09-09T16:34:26.630Z,4.60
2022-09-09T16:36:53.328Z,4.85
2022-09-09T16:39:21.530Z,5.18
2022-09-09T16:41:49.475Z,5.50
2022-09-09T16:44:19.177Z,3.53
2022-09-09T16:46:49.509Z,5.32
2022-09-09T16:49:16.907Z,3.75
2022-09-09T16:51:48.012Z,5.05
2022-09-09T16:54:17.095Z,3.30
2022-09-09T16:56:46.539Z,4.35
2022-09-09T16:59:19.105Z,4.18
2022-09-09T17:01:48.469Z,6.25
2022-09-09T17:04:21.395Z,5.18
2022-09-09T17:06:53.378Z,5.13
2022-09-09T17:09:21.465Z,5.15
2022-09-09T17:11:51.428Z,5.90
2022-09-09T17:14:19.765Z,5.60
2022-09-09T17:16:47.731Z,5.65
2022-09-09T17:19:15.560Z,5.43
2022-09-09T17:22:00.409Z,6.70
2022-09-09T17:24:30.026Z,4.80
2022-09-09T17:26:58.409Z,5.13
2022-09-09T17:29:25.815Z,6.03
2022-09-09T17:31:53.222Z,8.05
2022-09-09T17:34:20.115Z,7.15
2022-09-09T17:36:46.825Z,7.50
2022-09-09T17:39:13.612Z,6.57
2022-09-09T17:41:41.225Z,6.47
2022-09-09T17:46:41.301Z,5.70
2022-09-09T17:49:11.474Z,5.00
2022-09-09T17:51:38.886Z,6.95
2022-09-09T17:54:08.729Z,5.07
2022-09-09T17:56:36.687Z,5.60
2022-09-09T17:59:06.341Z,6.75
2022-09-09T18:01:35.587Z,6.35
2022-09-09T18:04:07.966Z,6.25
2022-09-09T18:06:37.493Z,7.35
2022-09-09T18:09:08.114Z,5.50
2022-09-09T18:11:42.965Z,4.95
2022-09-09T18:14:12.707Z,7.38
2022-09-09T18:16:40.929Z,6.55
2022-09-09T18:19:10.419Z,5.78
2022-09-09T18:21:37.418Z,6.07
2022-09-09T18:24:06.615Z,6.78
2022-09-09T18:26:34.196Z,5.22
2022-09-09T18:29:04.749Z,6.30
2022-09-09T18:31:31.888Z,6.63
2022-09-09T18:34:03.641Z,6.97
2022-09-09T18:36:34.056Z,7.97
2022-09-09T18:39:03.462Z,6.07
2022-09-09T18:41:33.632Z,6.00
2022-09-09T18:44:03.896Z,6.28
2022-09-09T18:46:34.934Z,6.50
2022-09-09T18:49:01.815Z,6.40
2022-09-09T18:51:29.862Z,8.13
2022-09-09T18:54:02.406Z,6.50
2022-09-09T18:56:30.396Z,7.50
2022-09-09T18:59:02.241Z,7.30
2022-09-09T19:01:30.410Z,6.72
2022-09-09T19:03:57.406Z,6.45
2022-09-09T19:06:27.795Z,8.02
2022-09-09T19:12:43.112Z,7.47
2022-09-09T19:15:10.312Z,7.25
2022-09-09T19:17:37.071Z,7.05
2022-09-09T19:20:05.341Z,6.97
2022-09-09T19:22:32.012Z,7.55
2022-09-09T19:25:03.407Z,7.45
2022-09-09T19:27:30.263Z,7.10
2022-09-09T19:29:57.206Z,7.45
2022-09-09T19:35:11.189Z,8.07
2022-09-09T19:37:37.810Z,7.80
2022-09-09T19:40:07.861Z,9.40
2022-09-09T19:42:34.694Z,8.15
2022-09-09T19:45:01.361Z,7.70
2022-09-09T19:47:28.016Z,9.68
2022-09-09T19:49:54.629Z,8.93
2022-09-09T19:52:21.347Z,8.38
2022-09-09T19:54:48.204Z,7.95
2022-09-09T19:57:15.521Z,9.82
2022-09-09T19:59:42.209Z,7.13
2022-09-09T20:02:12.592Z,7.80
2022-09-09T20:04:39.486Z,8.73
2022-09-09T20:07:07.201Z,8.32
2022-09-09T20:09:33.881Z,9.18
2022-09-09T20:12:00.771Z,9.07
2022-09-09T20:14:30.568Z,10.38
2022-09-09T20:17:01.382Z,8.43
2022-09-09T20:19:28.159Z,7.78
2022-09-09T20:22:09.463Z,8.20
2022-09-09T20:25:18.611Z,9.73
2022-09-09T20:32:04.456Z,9.30
2022-09-09T20:34:31.052Z,9.60
2022-09-09T20:36:59.327Z,12.07
2022-09-09T20:39:27.936Z,13.27
2022-09-09T20:41:54.860Z,12.00
2022-09-09T20:44:23.970Z,11.20
2022-09-09T20:46:55.311Z,11.48
2022-09-09T20:49:24.205Z,11.05
2022-09-09T20:51:52.255Z,10.48
2022-09-09T20:54:23.210Z,11.95
2022-09-09T20:56:50.858Z,11.43
2022-09-09T20:59:20.209Z,13.05
2022-09-09T21:01:47.911Z,10.77
2022-09-09T21:04:17.573Z,10.30
2022-09-09T21:06:44.994Z,9.80
2022-09-09T21:09:12.059Z,11.55
2022-09-09T21:11:39.232Z,10.50
2022-09-09T21:14:05.959Z,10.45
2022-09-09T21:16:32.580Z,10.77
2022-09-09T21:18:59.483Z,10.55
2022-09-09T21:21:27.065Z,11.00
2022-09-09T21:23:57.041Z,12.57
2022-09-09T21:26:24.644Z,11.10
2022-09-09T21:28:51.258Z,11.57
2022-09-09T21:31:19.460Z,11.23
2022-09-09T21:33:46.170Z,12.77
2022-09-09T21:36:14.649Z,13.40
2022-09-09T21:38:42.274Z,12.48
2022-09-09T21:41:13.002Z,12.32
2022-09-09T21:43:41.945Z,13.40
2022-09-09T21:46:10.384Z,13.20
2022-09-09T21:48:37.879Z,14.27
2022-09-09T21:51:07.856Z,16.65
2022-09-09T21:53:35.090Z,15.30
2022-09-09T21:56:06.107Z,14.10
2022-09-09T21:58:34.005Z,14.50
2022-09-09T22:01:03.277Z,17.52
2022-09-09T22:03:35.330Z,18.70
2022-09-09T22:06:08.652Z,14.18
2022-09-09T22:08:36.656Z,14.35
2022-09-09T22:11:08.248Z,16.17
2022-09-09T22:13:35.732Z,15.80
2022-09-09T22:16:07.620Z,15.65
2022-09-09T22:18:34.838Z,16.80
2022-09-09T22:21:13.120Z,15.02
2022-09-09T22:23:39.664Z,15.65
2022-09-09T22:26:07.203Z,18.42
2022-09-09T22:28:35.165Z,19.25
2022-09-09T22:31:02.301Z,16.95
2022-09-09T22:33:29.056Z,17.00
2022-09-09T22:35:56.502Z,18.33
2022-09-09T22:38:23.437Z,14.30
2022-09-09T22:40:50.411Z,17.15
2022-09-09T22:43:19.682Z,17.98
2022-09-09T22:45:46.660Z,18.30
2022-09-09T22:48:14.504Z,18.83
2022-09-09T22:50:42.627Z,20.50
2022-09-09T22:53:13.335Z,21.10
2022-09-09T22:55:40.557Z,19.70
2022-09-09T22:58:07.634Z,21.35
2022-09-09T23:00:34.646Z,20.75
2022-09-09T23:03:01.606Z,22.38
2022-09-09T23:05:28.429Z,22.30
2022-09-09T23:07:58.214Z,20.10
2022-09-09T23:10:25.499Z,22.50
2022-09-09T23:12:52.487Z,25.40
2022-09-09T23:15:19.825Z,21.00
2022-09-09T23:17:46.752Z,19.80
2022-09-09T23:20:13.699Z,21.17
2022-09-09T23:22:40.577Z,20.10
2022-09-09T23:25:07.768Z,19.90
2022-09-09T23:27:35.369Z,19.83
2022-09-09T23:30:02.129Z,28.30
2022-09-09T23:32:28.811Z,19.75
2022-09-09T23:34:55.964Z,22.42
2022-09-09T23:37:22.639Z,23.25
2022-09-09T23:39:49.230Z,18.95
2022-09-09T23:42:18.168Z,22.45
2022-09-09T23:44:45.524Z,20.33
2022-09-09T23:47:12.152Z,21.85
2022-09-09T23:49:39.491Z,18.75
2022-09-09T23:52:06.654Z,18.27
2022-09-09T23:54:35.008Z,16.73
2022-09-09T23:57:05.008Z,24.73
2022-09-09T23:59:31.839Z,27.45
